Troy, OH (45373)

8:15 PM EDT on September 28, 2016 (GMT -0400)
Rural | | Change Station
Active Advisory: Special Statement

Elev 854 ft 40.01 °N, 84.21 °W | Updated 33 seconds ago

Overcast
Overcast
55.6 °F
Feels Like 55.6 °F
N
0.0
Wind Variable Wind from ESE
Gusts 3.0 mph

Today
High -- | Low -- °F
--% Chance of Precip.
Yesterday
High -- | Low -- °F
Precip. -- in
Pressure 29.92 in
Visibility 10.0 miles
Clouds Mostly Cloudy 1800 ft
Overcast 9500 ft
Dew Point 55 °F
Humidity 99%
Rainfall 1.17 in
Snow Depth Not available.
7:30 AM 7:23 PM
Waning Crescent, 4% visible
METAR KDAY 282356Z 32004KT 10SM BKN018 OVC095 13/12 A2992 RMK AO2 SLP130 60025 T01330122 10150 20133 51009
Pressure 29.92 in
Visibility 10.0 miles
Clouds Mostly Cloudy 1800 ft
Overcast 9500 ft
Dew Point 55 °F
Humidity 99%
Rainfall 1.17 in
Snow Depth Not available.
7:30 AM 7:23 PM
Waning Crescent, 4% visible
METAR KDAY 282356Z 32004KT 10SM BKN018 OVC095 13/12 A2992 RMK AO2 SLP130 60025 T01330122 10150 20133 51009

10-Day Weather Forecast

Almanac

Astronomy

Sep. 28, 2016 Rise Set
Actual Time
Civil Twilight
Nautical Twilight
Astronomical Twilight
Moon
Length of Visible Light
Length of Day
Tomorrow will be .
, % of the Moon is Illuminated

Today's Extremes

State Highs State Lows

Community

WunderPhotos

Upload Photos

1,942,356 photos uploaded!

WunderBlog® & News

Nearby

Air Quality

  Air Quality AQ Index Pollutant
Not available.

Snow Depth

Station Depth Elevation

Earthquake Activity

City Distance Mag. Time & Date
Minimum magnitude displayed is 2.5.

Coastal Water Temperatures

Place Temperature

Stations

Nearby Weather Stations

Station Location Temp. Windchill Dew Point Humidity Wind Precip. Elev Updated Type
                   

Watches & Warnings

Special Statement
Issued: 7:23 PM EDT Sep. 28, 2016 – National Weather Service

... Cold air funnels possible this evening...

Cold air funnels will be possible this evening. This type of
funnel cloud is typically short-lived and very rarely touches
down. The atmospheric conditions these funnels are occurring in is
not supportive of strong... damaging tornadoes. On the rare
occasions that the funnels do touch the ground... little... if any
damage occurs. If threatening weather approaches move indoors to a
place of safety. The National Weather Service will continue to
closely monitor the situation.


723 PM EDT Wed Sep 28 2016

... Cold air funnels possible this evening...

Cold air funnels will be possible this evening. This type of
funnel cloud is typically short-lived and very rarely touches
down. The atmospheric conditions these funnels are occurring in is
not supportive of strong... damaging tornadoes. On the rare
occasions that the funnels do touch the ground... little... if any
damage occurs. If threatening weather approaches move indoors to a
place of safety. The National Weather Service will continue to
closely monitor the situation.